Terminal Aerodrome Forecast
Issued by NWS

Home | Current Version | Previous Version | Text Only | Print | Product List | Glossary On
Versions: 1 2 3 4 5 6 7 8 9 10 11 12 13 14 15 16 17 18 19 20 21
000
FTUS44 KMAF 221100
TAFCNM
TAF
KCNM 221120Z 2212/2312 15009KT P6SM SCT250
     FM221700 13012KT P6SM SCT100
     FM230000 12008KT P6SM SCT090=

USA.gov is the U.S. government's official web portal to all federal, state and local government web resources and services.